createdAt,value
2019-02-20T00:00:46.154Z,7.20
2019-02-20T00:03:17.010Z,7.20
2019-02-20T00:05:47.349Z,7.10
2019-02-20T00:08:17.687Z,7.10
2019-02-20T00:10:48.172Z,7.10
2019-02-20T00:13:18.468Z,7.10
2019-02-20T00:15:50.439Z,7.10
2019-02-20T00:18:23.689Z,7.20
2019-02-20T00:20:54.104Z,7.10
2019-02-20T00:23:25.489Z,7.10
2019-02-20T00:25:55.895Z,7.00
2019-02-20T00:28:26.211Z,7.00
2019-02-20T00:30:56.508Z,7.00
2019-02-20T00:33:26.847Z,7.00
2019-02-20T00:35:57.202Z,7.00
2019-02-20T00:38:27.528Z,6.90
2019-02-20T00:40:57.814Z,6.90
2019-02-20T00:43:28.236Z,6.90
2019-02-20T00:46:29.705Z,6.90
2019-02-20T00:49:13.451Z,6.80
2019-02-20T00:51:59.207Z,6.90
2019-02-20T00:54:29.615Z,6.90
2019-02-20T00:57:03.151Z,6.90
2019-02-20T00:59:33.485Z,6.90
2019-02-20T01:02:03.907Z,6.90
2019-02-20T01:04:34.569Z,6.90
2019-02-20T01:07:05.509Z,6.90
2019-02-20T01:09:36.379Z,6.90
2019-02-20T01:12:06.801Z,6.90
2019-02-20T01:14:40.280Z,6.90
2019-02-20T01:17:12.731Z,6.90
2019-02-20T01:19:43.174Z,6.90
2019-02-20T01:22:13.584Z,6.90
2019-02-20T01:24:44.048Z,7.00
2019-02-20T01:27:14.362Z,6.90
2019-02-20T01:29:44.695Z,6.90
2019-02-20T01:32:15.072Z,6.90
2019-02-20T01:34:45.396Z,6.90
2019-02-20T01:37:17.913Z,6.90
2019-02-20T01:39:49.525Z,6.90
2019-02-20T01:42:19.948Z,6.90
2019-02-20T01:44:50.256Z,6.90
2019-02-20T01:47:20.503Z,6.90
2019-02-20T01:49:50.851Z,6.90
2019-02-20T01:52:21.183Z,6.90
2019-02-20T01:54:51.523Z,7.00
2019-02-20T01:57:21.935Z,6.90
2019-02-20T01:59:52.375Z,6.90
2019-02-20T02:02:25.308Z,6.90
2019-02-20T02:04:55.664Z,6.90
2019-02-20T02:07:27.043Z,6.90
2019-02-20T02:09:57.448Z,6.90
2019-02-20T02:12:27.948Z,6.80
2019-02-20T02:14:58.226Z,6.80
2019-02-20T02:17:31.583Z,6.80
2019-02-20T02:20:01.985Z,6.80
2019-02-20T02:22:33.128Z,6.80
2019-02-20T02:25:05.106Z,6.80
2019-02-20T02:27:35.481Z,6.70
2019-02-20T02:30:06.467Z,6.80
2019-02-20T02:32:37.287Z,6.80
2019-02-20T02:35:07.815Z,6.80
2019-02-20T02:37:38.147Z,6.80
2019-02-20T02:40:10.367Z,6.80
2019-02-20T02:42:42.895Z,6.70
2019-02-20T02:45:13.488Z,6.80
2019-02-20T02:47:43.888Z,6.70
2019-02-20T02:50:14.231Z,6.70
2019-02-20T02:52:44.631Z,6.70
2019-02-20T02:55:16.902Z,6.70
2019-02-20T02:57:47.340Z,6.70
2019-02-20T03:00:18.267Z,6.70
2019-02-20T03:02:48.702Z,6.70
2019-02-20T03:05:19.224Z,6.70
2019-02-20T03:07:49.553Z,6.70
2019-02-20T03:10:19.800Z,6.70
2019-02-20T03:12:50.161Z,6.80
2019-02-20T03:15:20.455Z,6.70
2019-02-20T03:17:52.023Z,6.80
2019-02-20T03:20:25.245Z,6.80
2019-02-20T03:22:55.621Z,6.80
2019-02-20T03:25:25.845Z,6.80
2019-02-20T03:27:56.130Z,6.80
2019-02-20T03:30:26.698Z,6.80
2019-02-20T03:32:57.165Z,6.80
2019-02-20T03:35:27.386Z,6.80
2019-02-20T03:37:57.820Z,6.80
2019-02-20T03:40:29.647Z,6.80
2019-02-20T03:43:00.027Z,6.80
2019-02-20T03:45:30.380Z,6.70
2019-02-20T03:48:00.719Z,6.70
2019-02-20T03:50:31.167Z,6.70
2019-02-20T03:53:01.541Z,6.80
2019-02-20T03:55:31.861Z,6.80
2019-02-20T03:58:02.259Z,6.80
2019-02-20T04:00:32.600Z,6.80
2019-02-20T04:03:02.960Z,6.80
2019-02-20T04:05:33.387Z,6.80
2019-02-20T04:08:03.803Z,6.80
2019-02-20T04:10:34.260Z,6.80
2019-02-20T04:13:04.622Z,6.80
2019-02-20T04:15:34.979Z,6.80
2019-02-20T04:18:05.352Z,6.80
2019-02-20T04:20:35.781Z,6.80
2019-02-20T04:23:06.175Z,6.80
2019-02-20T04:25:36.678Z,6.80
2019-02-20T04:28:06.975Z,6.80
2019-02-20T04:30:37.471Z,6.80
2019-02-20T04:33:07.843Z,6.80
2019-02-20T04:35:38.352Z,6.80
2019-02-20T04:38:08.646Z,6.80
2019-02-20T04:40:39.000Z,6.80
2019-02-20T04:43:09.404Z,6.80
2019-02-20T04:45:39.795Z,6.80
2019-02-20T04:48:11.244Z,6.80
2019-02-20T04:50:43.204Z,6.70
2019-02-20T04:53:13.521Z,6.80
2019-02-20T04:55:43.855Z,6.80
2019-02-20T04:58:21.421Z,6.80
2019-02-20T05:00:51.826Z,6.80
2019-02-20T05:03:24.619Z,6.80
2019-02-20T05:05:54.936Z,6.80
2019-02-20T05:08:25.192Z,6.70
2019-02-20T05:10:55.481Z,6.80
2019-02-20T05:13:25.730Z,6.70
2019-02-20T05:15:56.094Z,6.70
2019-02-20T05:18:26.397Z,6.70
2019-02-20T05:20:58.039Z,6.70
2019-02-20T05:23:28.258Z,6.70
2019-02-20T05:25:58.574Z,6.70
2019-02-20T05:28:28.914Z,6.70
2019-02-20T05:30:59.229Z,6.70
2019-02-20T05:33:29.440Z,6.80
2019-02-20T05:35:59.844Z,6.80
2019-02-20T05:38:30.227Z,6.80
2019-02-20T05:41:01.151Z,6.80
2019-02-20T05:43:31.433Z,6.80
2019-02-20T05:46:01.821Z,6.80
2019-02-20T05:48:32.256Z,6.80
2019-02-20T05:51:02.532Z,6.80
2019-02-20T05:53:32.907Z,6.80
2019-02-20T05:56:03.264Z,6.80
2019-02-20T05:58:33.791Z,6.90
2019-02-20T06:01:04.075Z,6.90
2019-02-20T06:03:35.466Z,6.80
2019-02-20T06:06:05.735Z,6.90
2019-02-20T06:08:36.055Z,6.90
2019-02-20T06:11:14.482Z,6.90
2019-02-20T06:13:39.638Z,6.90
2019-02-20T06:16:09.992Z,6.90
2019-02-20T06:18:40.319Z,6.90
2019-02-20T06:21:10.663Z,6.90
2019-02-20T06:23:41.053Z,6.90
2019-02-20T06:26:11.411Z,6.90
2019-02-20T06:28:41.627Z,6.90
2019-02-20T06:31:11.879Z,6.90
2019-02-20T06:33:42.179Z,6.90
2019-02-20T06:36:12.451Z,6.90
2019-02-20T06:38:42.794Z,6.80
2019-02-20T06:41:13.054Z,6.80
2019-02-20T06:43:43.353Z,6.70
2019-02-20T06:46:13.696Z,6.70
2019-02-20T06:48:43.952Z,6.70
2019-02-20T06:51:15.238Z,6.70
2019-02-20T06:53:47.170Z,6.70
2019-02-20T06:56:17.496Z,6.70
2019-02-20T06:58:47.906Z,6.60
2019-02-20T07:01:18.426Z,6.60
2019-02-20T07:03:48.834Z,6.70
2019-02-20T07:06:59.522Z,6.70
2019-02-20T07:10:05.261Z,6.70
2019-02-20T07:13:09.758Z,6.70
2019-02-20T07:16:13.587Z,6.80
2019-02-20T07:19:23.566Z,6.80
2019-02-20T07:22:29.748Z,6.80
2019-02-20T07:25:25.232Z,6.90
2019-02-20T07:28:19.222Z,6.90
2019-02-20T07:30:52.607Z,6.90
2019-02-20T07:33:22.936Z,6.90
2019-02-20T07:35:53.237Z,6.90
2019-02-20T07:38:23.598Z,7.00
2019-02-20T07:40:53.935Z,7.00
2019-02-20T07:43:24.200Z,7.00
2019-02-20T07:45:54.611Z,7.00
2019-02-20T07:48:26.051Z,7.00
2019-02-20T07:50:56.444Z,7.00
2019-02-20T07:53:26.722Z,7.00
2019-02-20T07:55:57.656Z,7.00
2019-02-20T07:58:28.068Z,7.00
2019-02-20T08:00:58.481Z,7.00
2019-02-20T08:03:29.676Z,7.10
2019-02-20T08:06:02.796Z,7.10
2019-02-20T08:08:33.282Z,7.20
2019-02-20T08:11:05.098Z,7.20
2019-02-20T08:13:39.243Z,7.20
2019-02-20T08:16:07.646Z,7.30
2019-02-20T08:18:37.892Z,7.30
2019-02-20T08:21:09.010Z,7.40
2019-02-20T08:23:39.280Z,7.40
2019-02-20T08:26:10.140Z,7.50
2019-02-20T08:28:41.468Z,7.50
2019-02-20T08:31:11.784Z,7.50
2019-02-20T08:33:42.053Z,7.50
2019-02-20T08:36:13.462Z,7.60
2019-02-20T08:38:43.732Z,7.60
2019-02-20T08:41:15.281Z,7.60
2019-02-20T08:43:45.622Z,7.60
2019-02-20T08:46:17.011Z,7.70
2019-02-20T08:48:47.390Z,7.70
2019-02-20T08:51:17.689Z,7.80
2019-02-20T08:53:48.044Z,7.80
2019-02-20T08:56:18.393Z,7.90
2019-02-20T08:58:48.739Z,7.90
2019-02-20T09:01:19.203Z,8.00
2019-02-20T09:03:49.607Z,8.10
2019-02-20T09:06:20.004Z,8.10
2019-02-20T09:08:50.419Z,8.20
2019-02-20T09:11:20.779Z,8.20
2019-02-20T09:13:51.145Z,8.30
2019-02-20T09:16:21.669Z,8.30
2019-02-20T09:18:53.613Z,8.30
2019-02-20T09:21:25.401Z,8.30
2019-02-20T09:23:55.742Z,8.40
2019-02-20T09:26:26.293Z,8.40
2019-02-20T09:28:56.985Z,8.50
2019-02-20T09:31:27.500Z,8.60
2019-02-20T09:33:57.891Z,8.70
2019-02-20T09:36:29.340Z,8.70
2019-02-20T09:39:27.814Z,8.80
2019-02-20T09:41:58.258Z,8.80
2019-02-20T09:44:29.396Z,9.00
2019-02-20T09:46:59.752Z,9.10
2019-02-20T09:49:31.550Z,9.10
2019-02-20T09:52:03.452Z,9.30
2019-02-20T09:54:33.868Z,9.30
2019-02-20T09:57:04.264Z,9.20
2019-02-20T09:59:34.651Z,9.30
2019-02-20T10:02:05.037Z,9.30
2019-02-20T10:04:35.341Z,9.30
2019-02-20T10:07:05.667Z,9.40
2019-02-20T10:09:36.689Z,9.50
2019-02-20T10:12:07.952Z,9.50
2019-02-20T10:14:40.233Z,9.60
2019-02-20T10:17:11.203Z,9.50
2019-02-20T10:19:41.652Z,9.50
2019-02-20T10:22:21.123Z,9.30
2019-02-20T10:24:51.593Z,9.20
2019-02-20T10:27:22.946Z,9.10
2019-02-20T10:29:53.332Z,9.20
2019-02-20T10:32:23.763Z,9.30
2019-02-20T10:34:54.287Z,9.40
2019-02-20T10:37:24.673Z,9.60
2019-02-20T10:39:55.659Z,9.70
2019-02-20T10:42:25.989Z,9.60
2019-02-20T10:44:56.409Z,9.60
2019-02-20T10:47:26.761Z,9.70
2019-02-20T10:49:58.363Z,9.70
2019-02-20T10:52:28.732Z,9.80
2019-02-20T10:54:59.812Z,9.70
2019-02-20T10:57:30.126Z,9.70
2019-02-20T11:00:00.495Z,9.80
2019-02-20T11:02:33.508Z,9.70
2019-02-20T11:05:06.332Z,9.70
2019-02-20T11:07:36.748Z,9.50
2019-02-20T11:10:07.461Z,9.60
2019-02-20T11:12:37.912Z,9.70
2019-02-20T11:15:08.656Z,10.00
2019-02-20T11:17:39.339Z,9.70
2019-02-20T11:20:09.842Z,9.50
2019-02-20T11:22:40.287Z,9.50
2019-02-20T11:25:10.979Z,9.50
2019-02-20T11:27:41.494Z,9.60
2019-02-20T11:30:15.719Z,9.50
2019-02-20T11:32:48.712Z,9.50
2019-02-20T11:35:19.203Z,9.80
2019-02-20T11:37:49.661Z,9.80
2019-02-20T11:40:20.135Z,10.00
2019-02-20T11:42:50.688Z,10.00
2019-02-20T11:45:24.860Z,10.00
2019-02-20T11:47:55.319Z,10.20
2019-02-20T11:50:25.852Z,10.10
2019-02-20T11:52:56.217Z,9.90
2019-02-20T11:55:26.703Z,9.90
2019-02-20T11:58:00.726Z,10.00
2019-02-20T12:00:29.364Z,10.00
2019-02-20T12:03:00.029Z,9.60
2019-02-20T12:05:30.499Z,9.80
2019-02-20T12:08:01.138Z,10.00
2019-02-20T12:10:32.631Z,10.20
2019-02-20T12:13:02.972Z,9.90
2019-02-20T12:15:33.314Z,10.10
2019-02-20T12:18:03.869Z,10.40
2019-02-20T12:20:34.376Z,10.50
2019-02-20T12:23:04.722Z,10.50
2019-02-20T12:25:36.515Z,10.50
2019-02-20T12:28:06.892Z,10.60
2019-02-20T12:30:39.474Z,10.50
2019-02-20T12:33:09.941Z,10.40
2019-02-20T12:35:42.382Z,10.50
2019-02-20T12:38:12.926Z,10.80
2019-02-20T12:40:43.348Z,10.50
2019-02-20T12:43:16.429Z,10.20
2019-02-20T12:45:46.929Z,10.00
2019-02-20T12:48:17.936Z,9.90
2019-02-20T12:50:48.322Z,9.90
2019-02-20T12:53:18.683Z,9.80
2019-02-20T12:55:49.423Z,10.10
2019-02-20T12:58:19.831Z,10.30
2019-02-20T13:00:50.444Z,10.40
2019-02-20T13:03:20.836Z,10.50
2019-02-20T13:05:53.706Z,10.50
2019-02-20T13:08:25.355Z,10.60
2019-02-20T13:10:56.662Z,10.60
2019-02-20T13:13:27.360Z,10.70
2019-02-20T13:15:57.675Z,10.70
2019-02-20T13:18:28.165Z,10.70
2019-02-20T13:21:01.390Z,10.60
2019-02-20T13:23:34.127Z,10.80
2019-02-20T13:26:04.459Z,10.70
2019-02-20T13:28:34.987Z,10.70
2019-02-20T13:31:07.117Z,10.60
2019-02-20T13:33:37.512Z,10.80
2019-02-20T13:36:07.746Z,10.80
2019-02-20T13:38:38.194Z,10.70
2019-02-20T13:41:08.855Z,11.00
2019-02-20T13:43:39.197Z,11.20
2019-02-20T13:46:09.532Z,11.20
2019-02-20T13:48:39.962Z,11.20
2019-02-20T13:51:10.362Z,11.10
2019-02-20T13:53:46.385Z,11.10
2019-02-20T13:56:12.860Z,11.00
2019-02-20T13:58:43.228Z,11.20
2019-02-20T14:01:13.767Z,11.20
2019-02-20T14:03:44.278Z,11.00
2019-02-20T14:06:15.142Z,10.90
2019-02-20T14:08:45.590Z,10.70
2019-02-20T14:11:15.948Z,10.60
2019-02-20T14:13:47.325Z,10.60
2019-02-20T14:16:17.575Z,10.70
2019-02-20T14:18:47.865Z,10.60
2019-02-20T14:21:18.128Z,10.30
2019-02-20T14:23:49.696Z,10.40
2019-02-20T14:26:20.167Z,10.60
2019-02-20T14:28:50.672Z,10.80
2019-02-20T14:31:23.125Z,10.80
2019-02-20T14:33:53.231Z,10.70
2019-02-20T14:36:23.501Z,10.40
2019-02-20T14:38:53.893Z,10.50
2019-02-20T14:41:24.859Z,10.80
2019-02-20T14:43:55.378Z,10.90
2019-02-20T14:46:25.779Z,10.70
2019-02-20T14:48:56.203Z,10.50
2019-02-20T14:51:27.580Z,10.40
2019-02-20T14:53:58.162Z,10.40
2019-02-20T14:56:28.495Z,10.20
2019-02-20T14:59:01.668Z,10.20
2019-02-20T15:01:33.683Z,10.10
2019-02-20T15:04:04.080Z,10.20
2019-02-20T15:06:34.532Z,10.20
2019-02-20T15:09:05.847Z,9.90
2019-02-20T15:11:37.953Z,10.00
2019-02-20T15:14:08.330Z,10.10
2019-02-20T15:16:38.725Z,10.10
2019-02-20T15:19:09.581Z,10.10
2019-02-20T15:21:39.960Z,10.20
2019-02-20T15:24:10.389Z,10.30
2019-02-20T15:26:40.774Z,10.20
2019-02-20T15:29:11.173Z,10.10
2019-02-20T15:31:41.563Z,10.20
2019-02-20T15:34:11.957Z,10.20
2019-02-20T15:36:42.354Z,10.10
2019-02-20T15:39:12.791Z,9.90
2019-02-20T15:41:44.424Z,9.90
2019-02-20T15:44:17.116Z,9.80
2019-02-20T15:46:47.940Z,9.80
2019-02-20T15:49:18.373Z,9.70
2019-02-20T15:51:48.872Z,9.60
2019-02-20T15:54:19.367Z,9.50
2019-02-20T15:56:49.813Z,9.50
2019-02-20T15:59:20.206Z,9.50
2019-02-20T16:01:54.007Z,9.40
2019-02-20T16:04:24.437Z,9.40
2019-02-20T16:06:54.801Z,9.30
2019-02-20T16:09:25.256Z,9.30
2019-02-20T16:11:55.720Z,9.20
2019-02-20T16:14:26.395Z,9.20
2019-02-20T16:16:56.757Z,9.20
2019-02-20T16:19:27.175Z,9.20
2019-02-20T16:21:57.507Z,9.20
2019-02-20T16:24:27.891Z,9.20
2019-02-20T16:26:58.230Z,9.20
2019-02-20T16:29:29.035Z,9.30
2019-02-20T16:31:59.439Z,9.40
2019-02-20T16:37:26.809Z,9.30
2019-02-20T16:39:57.363Z,9.20
2019-02-20T16:42:27.741Z,9.20
2019-02-20T16:44:58.130Z,9.20
2019-02-20T16:47:28.519Z,9.20
2019-02-20T16:50:02.059Z,9.10
2019-02-20T16:52:33.152Z,9.10
2019-02-20T16:55:03.538Z,9.00
2019-02-20T16:57:39.712Z,9.00
2019-02-20T17:00:12.184Z,9.00
2019-02-20T17:02:43.323Z,8.90
2019-02-20T17:05:16.011Z,8.90
2019-02-20T17:07:46.551Z,8.80
2019-02-20T17:10:17.376Z,8.80
2019-02-20T17:12:47.796Z,8.80
2019-02-20T17:15:18.426Z,8.90
2019-02-20T17:17:49.209Z,8.80
2019-02-20T17:20:19.816Z,8.90
2019-02-20T17:22:50.301Z,8.90
2019-02-20T17:25:21.206Z,8.90
2019-02-20T17:27:51.557Z,8.90
2019-02-20T17:30:22.406Z,8.90
2019-02-20T17:32:54.535Z,9.00
2019-02-20T17:35:24.959Z,8.90
2019-02-20T17:37:55.369Z,8.90
2019-02-20T17:40:26.056Z,8.90
2019-02-20T17:42:56.564Z,8.90
2019-02-20T17:45:27.287Z,8.90
2019-02-20T17:48:00.473Z,8.90
2019-02-20T17:50:30.899Z,8.90
2019-02-20T17:53:01.299Z,8.90
2019-02-20T17:55:31.739Z,8.90
2019-02-20T17:58:02.122Z,9.00
2019-02-20T18:00:32.653Z,8.90
2019-02-20T18:03:03.040Z,8.90
2019-02-20T18:05:35.046Z,9.00
2019-02-20T18:08:10.994Z,9.00
2019-02-20T18:10:41.417Z,9.00
2019-02-20T18:13:16.866Z,9.00
2019-02-20T18:15:53.134Z,9.00
2019-02-20T18:18:38.700Z,9.10
2019-02-20T18:21:31.013Z,9.10
2019-02-20T18:24:35.040Z,9.20
2019-02-20T18:27:00.504Z,9.10
2019-02-20T18:32:50.950Z,9.10
2019-02-20T18:35:36.967Z,9.00
2019-02-20T18:38:19.119Z,9.00
2019-02-20T18:40:56.707Z,9.00
2019-02-20T18:43:28.799Z,9.00
2019-02-20T18:45:59.274Z,8.90
2019-02-20T18:48:30.055Z,9.00
2019-02-20T18:51:04.757Z,8.90
2019-02-20T18:53:44.964Z,8.80
2019-02-20T18:56:15.888Z,8.90
2019-02-20T18:58:47.041Z,8.80
2019-02-20T19:01:17.383Z,8.80
2019-02-20T19:03:47.851Z,8.70
2019-02-20T19:06:18.343Z,8.70
2019-02-20T19:08:51.620Z,8.80
2019-02-20T19:11:38.167Z,8.70
2019-02-20T19:14:44.041Z,8.70
2019-02-20T19:18:19.785Z,8.70
2019-02-20T19:21:11.385Z,8.70
2019-02-20T19:24:35.377Z,8.60
2019-02-20T19:27:43.872Z,8.50
2019-02-20T19:30:54.740Z,8.60
2019-02-20T19:34:09.128Z,8.60
2019-02-20T19:37:21.322Z,8.60
2019-02-20T19:40:18.115Z,8.50
2019-02-20T19:43:27.433Z,8.60
2019-02-20T19:46:25.247Z,8.50
2019-02-20T19:49:42.935Z,8.60
2019-02-20T19:53:06.362Z,8.60
2019-02-20T19:56:01.647Z,8.60
2019-02-20T19:59:04.007Z,8.70
2019-02-20T20:02:10.196Z,8.70
2019-02-20T20:05:16.631Z,8.80
2019-02-20T20:08:11.817Z,8.70
2019-02-20T20:10:59.989Z,8.60
2019-02-20T20:13:45.641Z,8.60
2019-02-20T20:16:53.659Z,8.70
2019-02-20T20:19:53.277Z,8.70
2019-02-20T20:22:49.758Z,8.70
2019-02-20T20:25:45.311Z,8.60
2019-02-20T20:28:43.780Z,8.60
2019-02-20T20:31:50.001Z,8.50
2019-02-20T20:35:03.368Z,8.50
2019-02-20T20:38:13.717Z,8.40
2019-02-20T20:41:35.687Z,8.40
2019-02-20T20:44:55.920Z,8.30
2019-02-20T20:47:43.744Z,8.40
2019-02-20T20:50:49.888Z,8.30
2019-02-20T20:54:09.521Z,8.30
2019-02-20T20:57:18.163Z,8.20
2019-02-20T21:00:08.800Z,8.20
2019-02-20T21:03:04.936Z,8.20
2019-02-20T21:06:08.050Z,8.20
2019-02-20T21:08:51.842Z,8.10
2019-02-20T21:11:44.551Z,8.10
2019-02-20T21:15:02.590Z,8.00
2019-02-20T21:18:01.001Z,7.90
2019-02-20T21:21:18.493Z,8.00
2019-02-20T21:24:34.803Z,7.90
2019-02-20T21:27:36.144Z,7.80
2019-02-20T21:30:38.493Z,7.80
2019-02-20T21:33:55.457Z,7.80
2019-02-20T21:36:36.933Z,7.80
2019-02-20T21:39:24.839Z,7.80
2019-02-20T21:42:17.936Z,7.80
2019-02-20T21:45:17.710Z,7.80
2019-02-20T21:48:24.852Z,7.80
2019-02-20T21:51:35.339Z,7.80
2019-02-20T21:54:42.477Z,7.70
2019-02-20T21:57:56.914Z,7.70
2019-02-20T22:01:10.338Z,7.70
2019-02-20T22:04:12.224Z,7.70
2019-02-20T22:07:34.844Z,7.60
2019-02-20T22:10:52.418Z,7.60
2019-02-20T22:14:03.177Z,7.60
2019-02-20T22:17:15.369Z,7.60
2019-02-20T22:20:16.110Z,7.60
2019-02-20T22:23:27.445Z,7.60
2019-02-20T22:26:35.746Z,7.60
2019-02-20T22:29:32.715Z,7.60
2019-02-20T22:32:48.236Z,7.50
2019-02-20T22:35:59.137Z,7.50
2019-02-20T22:39:09.650Z,7.50
2019-02-20T22:42:24.773Z,7.60
2019-02-20T22:45:34.525Z,7.50
2019-02-20T22:48:53.996Z,7.50
2019-02-20T22:52:03.377Z,7.50
2019-02-20T22:55:33.917Z,7.60
2019-02-20T22:58:16.088Z,7.60
2019-02-20T23:01:29.388Z,7.50
2019-02-20T23:04:47.205Z,7.60
2019-02-20T23:07:45.935Z,7.60
2019-02-20T23:10:43.635Z,7.50
2019-02-20T23:13:51.509Z,7.60
2019-02-20T23:16:22.616Z,7.60
2019-02-20T23:18:52.977Z,7.60
2019-02-20T23:21:23.337Z,7.60
2019-02-20T23:23:53.767Z,7.50
2019-02-20T23:26:28.113Z,7.50
2019-02-20T23:28:58.505Z,7.50
2019-02-20T23:31:28.879Z,7.40
2019-02-20T23:33:59.209Z,7.40
2019-02-20T23:36:29.438Z,7.30
2019-02-20T23:39:01.284Z,7.30
2019-02-20T23:41:33.165Z,7.30
2019-02-20T23:44:06.095Z,7.30
2019-02-20T23:46:36.399Z,7.30
2019-02-20T23:49:06.774Z,7.30
2019-02-20T23:51:37.106Z,7.30
2019-02-20T23:54:07.626Z,7.30
2019-02-20T23:56:37.890Z,7.30
2019-02-20T23:59:08.553Z,7.30
